createdAt,value
2023-06-10T00:00:21.787Z,15.77
2023-06-10T00:02:48.586Z,15.77
2023-06-10T00:05:17.404Z,15.71
2023-06-10T00:07:44.141Z,15.67
2023-06-10T00:10:11.850Z,15.66
2023-06-10T00:12:39.714Z,15.62
2023-06-10T00:15:07.974Z,15.67
2023-06-10T00:17:35.343Z,15.68
2023-06-10T00:20:05.986Z,15.69
2023-06-10T00:22:33.487Z,15.68
2023-06-10T00:25:00.253Z,15.67
2023-06-10T00:27:32.524Z,15.61
2023-06-10T00:30:01.050Z,15.63
2023-06-10T00:32:27.668Z,15.64
2023-06-10T00:34:55.823Z,15.64
2023-06-10T00:37:22.547Z,15.64
2023-06-10T00:39:49.747Z,15.60
2023-06-10T00:42:16.440Z,15.51
2023-06-10T00:44:43.226Z,15.44
2023-06-10T00:47:10.755Z,15.43
2023-06-10T00:49:37.746Z,15.40
2023-06-10T00:52:05.971Z,15.36
2023-06-10T00:54:33.943Z,15.35
2023-06-10T00:57:02.465Z,15.32
2023-06-10T00:59:33.245Z,15.31
2023-06-10T01:02:00.140Z,15.27
2023-06-10T01:04:26.766Z,15.25
2023-06-10T01:07:10.558Z,15.20
2023-06-10T01:09:46.582Z,15.07
2023-06-10T01:12:20.678Z,14.95
2023-06-10T01:14:49.898Z,14.84
2023-06-10T01:17:18.002Z,14.80
2023-06-10T01:19:45.621Z,14.73
2023-06-10T01:22:17.037Z,14.59
2023-06-10T01:24:45.052Z,14.57
2023-06-10T01:27:14.340Z,14.57
2023-06-10T01:29:49.452Z,14.59
2023-06-10T01:32:19.591Z,14.54
2023-06-10T01:34:46.875Z,14.41
2023-06-10T01:37:14.816Z,14.40
2023-06-10T01:39:41.920Z,14.35
2023-06-10T01:42:11.558Z,14.37
2023-06-10T01:44:40.368Z,14.28
2023-06-10T01:47:08.934Z,14.34
2023-06-10T01:49:35.852Z,14.18
2023-06-10T01:52:02.596Z,14.15
2023-06-10T01:54:29.422Z,14.11
2023-06-10T01:56:56.129Z,14.03
2023-06-10T01:59:22.916Z,13.91
2023-06-10T02:01:49.588Z,13.79
2023-06-10T02:04:17.621Z,13.83
2023-06-10T02:06:44.352Z,13.86
2023-06-10T02:09:11.451Z,13.80
2023-06-10T02:11:38.149Z,13.75
2023-06-10T02:14:04.910Z,13.67
2023-06-10T02:16:32.346Z,13.70
2023-06-10T02:18:59.806Z,13.66
2023-06-10T02:21:28.287Z,13.52
2023-06-10T02:23:54.986Z,13.55
2023-06-10T02:26:22.116Z,13.56
2023-06-10T02:28:48.920Z,13.49
2023-06-10T02:31:15.706Z,13.44
2023-06-10T02:33:43.050Z,13.36
2023-06-10T02:36:14.145Z,13.33
2023-06-10T02:38:41.539Z,13.28
2023-06-10T02:41:08.325Z,13.31
2023-06-10T02:43:35.997Z,13.28
2023-06-10T02:46:03.375Z,13.18
2023-06-10T02:48:31.381Z,13.14
2023-06-10T02:50:58.696Z,13.11
2023-06-10T02:53:32.588Z,13.17
2023-06-10T02:56:06.000Z,13.09
2023-06-10T02:58:33.163Z,13.05
2023-06-10T03:00:59.884Z,13.04
2023-06-10T03:03:29.203Z,12.96
2023-06-10T03:06:02.679Z,12.97
2023-06-10T03:08:30.969Z,12.90
2023-06-10T03:11:00.049Z,12.87
2023-06-10T03:13:30.109Z,12.86
2023-06-10T03:15:57.895Z,12.92
2023-06-10T03:18:27.948Z,12.89
2023-06-10T03:20:56.169Z,12.87
2023-06-10T03:23:24.596Z,12.81
2023-06-10T03:25:51.842Z,12.77
2023-06-10T03:28:20.222Z,12.90
2023-06-10T03:30:48.005Z,12.84
2023-06-10T03:33:15.103Z,12.81
2023-06-10T03:35:43.160Z,12.81
2023-06-10T03:38:10.014Z,12.77
2023-06-10T03:40:37.251Z,12.74
2023-06-10T03:43:04.904Z,12.83
2023-06-10T03:45:33.223Z,12.76
2023-06-10T03:48:00.481Z,12.80
2023-06-10T03:50:33.882Z,12.79
2023-06-10T03:53:00.848Z,12.81
2023-06-10T03:55:28.501Z,12.77
2023-06-10T03:57:56.468Z,12.76
2023-06-10T04:00:23.162Z,12.76
2023-06-10T04:02:52.822Z,12.81
2023-06-10T04:05:29.967Z,12.85
2023-06-10T04:07:58.071Z,12.82
2023-06-10T04:10:24.859Z,12.84
2023-06-10T04:12:51.693Z,12.89
2023-06-10T04:15:19.259Z,12.94
2023-06-10T04:17:46.888Z,13.03
2023-06-10T04:20:13.794Z,13.09
2023-06-10T04:22:45.339Z,13.21
2023-06-10T04:25:12.926Z,13.29
2023-06-10T04:27:41.471Z,13.45
2023-06-10T04:30:08.596Z,13.54
2023-06-10T04:32:37.777Z,13.66
2023-06-10T04:35:07.987Z,13.78
2023-06-10T04:37:35.124Z,13.89
2023-06-10T04:40:02.540Z,14.03
2023-06-10T04:42:30.055Z,14.17
2023-06-10T04:44:56.801Z,14.29
2023-06-10T04:47:24.313Z,14.44
2023-06-10T04:49:50.994Z,14.59
2023-06-10T04:52:19.343Z,14.72
2023-06-10T04:54:46.658Z,14.86
2023-06-10T04:57:13.433Z,15.01
2023-06-10T04:59:40.143Z,15.10
2023-06-10T05:02:07.030Z,15.21
2023-06-10T05:04:33.792Z,15.34
2023-06-10T05:07:00.737Z,15.50
2023-06-10T05:09:27.616Z,15.67
2023-06-10T05:11:55.457Z,15.84
2023-06-10T05:14:22.152Z,16.01
2023-06-10T05:16:49.469Z,16.15
2023-06-10T05:19:17.520Z,16.23
2023-06-10T05:21:45.474Z,16.36
2023-06-10T05:24:12.693Z,16.38
2023-06-10T05:26:40.171Z,16.39
2023-06-10T05:29:07.009Z,16.61
2023-06-10T05:31:33.893Z,16.75
2023-06-10T05:34:01.413Z,16.80
2023-06-10T05:36:28.682Z,16.99
2023-06-10T05:38:56.052Z,17.11
2023-06-10T05:41:23.260Z,17.25
2023-06-10T05:43:50.686Z,17.41
2023-06-10T05:46:17.882Z,17.50
2023-06-10T05:48:44.930Z,17.68
2023-06-10T05:51:12.365Z,17.82
2023-06-10T05:53:40.149Z,17.95
2023-06-10T05:56:06.876Z,17.99
2023-06-10T05:58:33.819Z,18.17
2023-06-10T06:01:01.447Z,18.26
2023-06-10T06:03:30.272Z,18.39
2023-06-10T06:05:57.247Z,18.61
2023-06-10T06:08:24.284Z,18.77
2023-06-10T06:10:51.430Z,18.99
2023-06-10T06:13:18.430Z,19.19
2023-06-10T06:15:45.862Z,19.42
2023-06-10T06:18:12.986Z,19.42
2023-06-10T06:20:39.841Z,19.51
2023-06-10T06:23:06.845Z,19.71
2023-06-10T06:25:34.255Z,19.88
2023-06-10T06:28:00.963Z,20.02
2023-06-10T06:30:27.681Z,20.16
2023-06-10T06:32:54.880Z,20.13
2023-06-10T06:35:21.657Z,20.20
2023-06-10T06:37:48.489Z,20.25
2023-06-10T06:40:22.968Z,20.55
2023-06-10T06:42:49.921Z,20.68
2023-06-10T06:45:36.944Z,20.88
2023-06-10T06:48:04.008Z,20.99
2023-06-10T06:50:30.905Z,20.95
2023-06-10T06:52:57.607Z,21.15
2023-06-10T06:55:24.385Z,21.31
2023-06-10T06:57:51.084Z,21.34
2023-06-10T07:00:18.206Z,21.24
2023-06-10T07:02:45.042Z,21.34
2023-06-10T07:05:11.995Z,21.30
2023-06-10T07:07:39.014Z,21.27
2023-06-10T07:10:06.349Z,21.40
2023-06-10T07:12:33.164Z,21.44
2023-06-10T07:15:00.057Z,21.60
2023-06-10T07:17:28.178Z,21.80
2023-06-10T07:19:58.441Z,21.93
2023-06-10T07:22:25.593Z,21.96
2023-06-10T07:24:53.056Z,22.23
2023-06-10T07:27:19.838Z,22.30
2023-06-10T07:29:46.468Z,22.43
2023-06-10T07:32:13.190Z,22.51
2023-06-10T07:34:40.054Z,22.64
2023-06-10T07:37:07.322Z,22.71
2023-06-10T07:39:34.104Z,22.69
2023-06-10T07:42:00.838Z,22.37
2023-06-10T07:44:27.714Z,22.02
2023-06-10T07:46:54.558Z,21.94
2023-06-10T07:49:21.441Z,21.82
2023-06-10T07:51:48.317Z,21.91
2023-06-10T07:54:16.052Z,21.66
2023-06-10T07:56:44.575Z,21.69
2023-06-10T07:59:11.246Z,21.77
2023-06-10T08:01:40.439Z,21.84
2023-06-10T08:04:08.204Z,21.77
2023-06-10T08:06:35.025Z,21.66
2023-06-10T08:09:01.753Z,21.91
2023-06-10T08:11:29.453Z,22.18
2023-06-10T08:13:56.185Z,22.32
2023-06-10T08:16:23.047Z,22.53
2023-06-10T08:18:54.095Z,22.59
2023-06-10T08:21:22.479Z,22.47
2023-06-10T08:23:49.362Z,22.44
2023-06-10T08:26:16.181Z,22.44
2023-06-10T08:28:42.888Z,22.69
2023-06-10T08:31:09.652Z,22.70
2023-06-10T08:33:36.358Z,22.58
2023-06-10T08:36:03.266Z,22.48
2023-06-10T08:38:30.093Z,22.57
2023-06-10T08:41:01.878Z,22.57
2023-06-10T08:43:28.581Z,22.80
2023-06-10T08:45:59.400Z,23.04
2023-06-10T08:48:28.724Z,23.34
2023-06-10T08:50:56.748Z,23.45
2023-06-10T08:53:25.201Z,23.67
2023-06-10T08:55:55.139Z,23.55
2023-06-10T08:58:22.126Z,23.61
2023-06-10T09:00:48.927Z,23.72
2023-06-10T09:03:15.913Z,23.84
2023-06-10T09:05:43.169Z,23.94
2023-06-10T09:08:10.370Z,23.97
2023-06-10T09:10:37.192Z,24.08
2023-06-10T09:13:04.044Z,24.24
2023-06-10T09:15:30.740Z,24.25
2023-06-10T09:17:57.646Z,24.22
2023-06-10T09:20:24.349Z,24.20
2023-06-10T09:22:51.172Z,24.15
2023-06-10T09:25:18.376Z,24.16
2023-06-10T09:27:55.052Z,24.37
2023-06-10T09:30:30.057Z,24.44
2023-06-10T09:33:01.632Z,24.55
2023-06-10T09:35:30.212Z,24.73
2023-06-10T09:38:01.473Z,24.74
2023-06-10T09:40:31.483Z,25.02
2023-06-10T09:43:00.358Z,25.15
2023-06-10T09:45:33.870Z,25.11
2023-06-10T09:48:01.824Z,25.37
2023-06-10T09:50:29.146Z,25.25
2023-06-10T09:52:56.056Z,25.23
2023-06-10T09:55:22.890Z,25.37
2023-06-10T09:57:55.050Z,25.65
2023-06-10T10:00:23.671Z,25.59
2023-06-10T10:02:53.422Z,25.64
2023-06-10T10:05:24.097Z,25.55
2023-06-10T10:07:52.226Z,25.72
2023-06-10T10:10:21.207Z,25.68
2023-06-10T10:12:49.199Z,25.65
2023-06-10T10:15:19.415Z,25.52
2023-06-10T10:17:51.638Z,25.38
2023-06-10T10:20:21.948Z,25.57
2023-06-10T10:22:51.057Z,25.53
2023-06-10T10:25:24.549Z,25.46
2023-06-10T10:28:13.051Z,25.39
2023-06-10T10:31:00.870Z,25.53
2023-06-10T10:33:36.317Z,25.70
2023-06-10T10:36:03.439Z,25.51
2023-06-10T10:38:30.481Z,25.74
2023-06-10T10:41:00.731Z,25.76
2023-06-10T10:43:29.108Z,25.88
2023-06-10T10:46:02.882Z,26.07
2023-06-10T10:48:38.283Z,26.40
2023-06-10T10:51:05.174Z,26.58
2023-06-10T10:53:31.830Z,27.00
2023-06-10T10:56:09.838Z,27.42
2023-06-10T10:58:37.856Z,27.86
2023-06-10T11:01:15.834Z,28.20
2023-06-10T11:03:48.212Z,27.99
2023-06-10T11:06:16.742Z,28.00
2023-06-10T11:08:45.011Z,27.94
2023-06-10T11:11:27.024Z,27.68
2023-06-10T11:14:03.053Z,27.99
2023-06-10T11:16:30.400Z,27.83
2023-06-10T11:18:57.853Z,27.71
2023-06-10T11:21:28.367Z,27.66
2023-06-10T11:24:01.616Z,27.58
2023-06-10T11:26:32.396Z,27.66
2023-06-10T11:28:59.198Z,28.07
2023-06-10T11:31:34.017Z,28.44
2023-06-10T11:34:04.332Z,28.87
2023-06-10T11:36:31.406Z,29.04
2023-06-10T11:38:59.132Z,29.00
2023-06-10T11:41:30.291Z,28.38
2023-06-10T11:43:58.207Z,28.04
2023-06-10T11:46:27.813Z,27.93
2023-06-10T11:48:56.284Z,28.01
2023-06-10T11:51:23.360Z,28.18
2023-06-10T11:53:50.520Z,28.20
2023-06-10T11:56:30.460Z,28.08
2023-06-10T11:59:08.681Z,28.07
2023-06-10T12:01:40.632Z,28.45
2023-06-10T12:04:10.694Z,28.28
2023-06-10T12:06:50.165Z,28.01
2023-06-10T12:09:43.396Z,28.01
2023-06-10T12:12:11.767Z,28.51
2023-06-10T12:15:00.356Z,28.54
2023-06-10T12:17:33.801Z,28.06
2023-06-10T12:20:01.651Z,27.98
2023-06-10T12:22:28.579Z,28.52
2023-06-10T12:25:04.628Z,28.89
2023-06-10T12:27:32.831Z,29.23
2023-06-10T12:30:04.922Z,29.54
2023-06-10T12:32:43.930Z,29.36
2023-06-10T12:35:14.457Z,29.36
2023-06-10T12:37:43.434Z,29.46
2023-06-10T12:40:11.677Z,29.70
2023-06-10T12:42:39.037Z,29.79
2023-06-10T12:45:08.682Z,29.95
2023-06-10T12:47:39.142Z,30.38
2023-06-10T12:50:07.009Z,30.64
2023-06-10T12:52:33.747Z,30.60
2023-06-10T12:55:01.772Z,30.60
2023-06-10T12:57:28.980Z,30.51
2023-06-10T12:59:58.428Z,29.89
2023-06-10T13:02:25.610Z,29.44
2023-06-10T13:04:52.480Z,29.01
2023-06-10T13:07:19.328Z,28.75
2023-06-10T13:09:50.034Z,28.42
2023-06-10T13:12:21.058Z,28.01
2023-06-10T13:14:54.886Z,28.26
2023-06-10T13:17:22.960Z,28.36
2023-06-10T13:19:50.980Z,28.35
2023-06-10T13:22:17.780Z,28.71
2023-06-10T13:24:44.898Z,29.22
2023-06-10T13:27:11.645Z,29.74
2023-06-10T13:29:38.412Z,29.73
2023-06-10T13:32:05.377Z,29.49
2023-06-10T13:34:32.079Z,29.62
2023-06-10T13:36:58.961Z,29.56
2023-06-10T13:39:25.742Z,29.82
2023-06-10T13:41:53.178Z,30.09
2023-06-10T13:44:20.004Z,30.56
2023-06-10T13:46:49.887Z,30.85
2023-06-10T13:49:17.026Z,30.72
2023-06-10T13:51:43.766Z,30.33
2023-06-10T13:54:10.519Z,29.78
2023-06-10T13:56:39.911Z,29.59
2023-06-10T13:59:06.747Z,29.70
2023-06-10T14:01:33.429Z,29.91
2023-06-10T14:04:00.361Z,30.22
2023-06-10T14:06:27.743Z,30.61
2023-06-10T14:08:55.750Z,30.97
2023-06-10T14:11:22.478Z,30.85
2023-06-10T14:13:49.409Z,30.88
2023-06-10T14:16:16.099Z,30.49
2023-06-10T14:18:42.817Z,30.72
2023-06-10T14:21:09.562Z,31.07
2023-06-10T14:23:36.452Z,31.76
2023-06-10T14:26:04.180Z,32.19
2023-06-10T14:28:31.003Z,31.95
2023-06-10T14:30:58.820Z,31.43
2023-06-10T14:33:25.701Z,31.34
2023-06-10T14:35:52.357Z,30.73
2023-06-10T14:38:19.484Z,30.64
2023-06-10T14:40:46.180Z,30.75
2023-06-10T14:43:13.027Z,30.25
2023-06-10T14:45:43.078Z,30.40
2023-06-10T14:48:09.978Z,30.27
2023-06-10T14:50:37.045Z,30.21
2023-06-10T14:53:03.976Z,30.15
2023-06-10T14:55:30.661Z,30.21
2023-06-10T14:57:58.860Z,30.85
2023-06-10T15:00:26.524Z,31.77
2023-06-10T15:02:54.527Z,32.05
2023-06-10T15:05:21.679Z,31.73
2023-06-10T15:07:48.832Z,31.67
2023-06-10T15:10:16.493Z,32.07
2023-06-10T15:12:43.373Z,31.80
2023-06-10T15:15:10.479Z,32.22
2023-06-10T15:17:37.851Z,32.46
2023-06-10T15:20:05.527Z,32.55
2023-06-10T15:22:34.695Z,32.12
2023-06-10T15:25:11.187Z,32.20
2023-06-10T15:27:44.009Z,32.94
2023-06-10T15:30:11.095Z,33.12
2023-06-10T15:32:37.850Z,34.42
2023-06-10T15:35:04.863Z,35.97
2023-06-10T15:37:31.671Z,37.35
2023-06-10T15:39:58.437Z,34.98
2023-06-10T15:42:27.652Z,34.84
2023-06-10T15:44:54.337Z,36.16
2023-06-10T15:47:21.764Z,38.82
2023-06-10T15:49:48.656Z,39.59
2023-06-10T15:52:15.492Z,39.42
2023-06-10T15:54:42.206Z,40.06
2023-06-10T15:57:09.564Z,40.82
2023-06-10T15:59:36.525Z,41.03
2023-06-10T16:02:04.974Z,42.79
2023-06-10T16:04:31.730Z,42.67
2023-06-10T16:06:58.727Z,44.03
2023-06-10T16:09:25.448Z,44.47
2023-06-10T16:11:52.242Z,44.56
2023-06-10T16:14:18.925Z,45.04
2023-06-10T16:16:45.790Z,45.36
2023-06-10T16:19:12.572Z,45.33
2023-06-10T16:21:41.420Z,45.23
2023-06-10T16:24:09.310Z,46.00
2023-06-10T16:26:36.145Z,45.38
2023-06-10T16:29:02.825Z,45.91
2023-06-10T16:31:29.573Z,45.11
2023-06-10T16:33:56.336Z,44.08
2023-06-10T16:36:22.982Z,40.88
2023-06-10T16:38:49.649Z,39.60
2023-06-10T16:41:16.429Z,40.18
2023-06-10T16:43:43.032Z,40.84
2023-06-10T16:46:09.780Z,41.41
2023-06-10T16:48:36.444Z,42.15
2023-06-10T16:51:03.299Z,42.10
2023-06-10T16:53:30.168Z,42.13
2023-06-10T16:55:56.983Z,42.77
2023-06-10T16:58:23.656Z,42.02
2023-06-10T17:00:50.676Z,41.20
2023-06-10T17:03:17.421Z,41.53
2023-06-10T17:05:44.224Z,41.64
2023-06-10T17:08:11.002Z,42.29
2023-06-10T17:10:37.877Z,42.14
2023-06-10T17:13:04.632Z,42.79
2023-06-10T17:15:31.436Z,43.10
2023-06-10T17:17:58.226Z,42.57
2023-06-10T17:20:24.981Z,42.26
2023-06-10T17:22:51.855Z,42.46
2023-06-10T17:25:18.591Z,42.68
2023-06-10T17:27:45.310Z,42.03
2023-06-10T17:30:12.390Z,42.11
2023-06-10T17:32:41.415Z,42.23
2023-06-10T17:35:10.000Z,39.40
2023-06-10T17:37:36.905Z,36.61
2023-06-10T17:40:04.208Z,35.61
2023-06-10T17:42:30.973Z,34.47
2023-06-10T17:44:57.690Z,35.64
2023-06-10T17:47:24.538Z,36.49
2023-06-10T17:49:51.477Z,37.33
2023-06-10T17:52:18.239Z,37.70
2023-06-10T17:54:44.964Z,37.74
2023-06-10T17:57:11.710Z,37.12
2023-06-10T17:59:38.505Z,35.24
2023-06-10T18:02:05.667Z,33.85
2023-06-10T18:04:32.546Z,32.28
2023-06-10T18:06:59.224Z,31.32
2023-06-10T18:09:27.008Z,30.69
2023-06-10T18:11:54.395Z,29.81
2023-06-10T18:14:21.146Z,29.33
2023-06-10T18:16:48.062Z,28.77
2023-06-10T18:19:16.341Z,28.36
2023-06-10T18:21:43.077Z,27.90
2023-06-10T18:24:09.908Z,27.77
2023-06-10T18:26:36.785Z,27.57
2023-06-10T18:29:03.432Z,27.30
2023-06-10T18:31:30.864Z,27.10
2023-06-10T18:33:57.612Z,26.89
2023-06-10T18:36:24.343Z,26.70
2023-06-10T18:38:51.697Z,26.41
2023-06-10T18:41:18.412Z,26.25
2023-06-10T18:43:45.035Z,26.09
2023-06-10T18:46:11.829Z,25.88
2023-06-10T18:48:40.691Z,25.71
2023-06-10T18:51:07.858Z,25.49
2023-06-10T18:53:34.556Z,25.26
2023-06-10T18:56:04.177Z,24.86
2023-06-10T18:58:33.748Z,24.73
2023-06-10T19:01:01.292Z,24.36
2023-06-10T19:03:30.054Z,23.81
2023-06-10T19:05:57.981Z,23.56
2023-06-10T19:08:24.864Z,23.47
2023-06-10T19:10:51.566Z,23.27
2023-06-10T19:13:18.539Z,23.01
2023-06-10T19:15:45.321Z,22.70
2023-06-10T19:18:12.179Z,22.63
2023-06-10T19:20:40.739Z,22.54
2023-06-10T19:23:07.622Z,22.19
2023-06-10T19:25:34.299Z,22.00
2023-06-10T19:28:01.185Z,21.74
2023-06-10T19:30:28.550Z,21.43
2023-06-10T19:32:55.528Z,21.36
2023-06-10T19:35:22.213Z,21.21
2023-06-10T19:37:48.962Z,20.98
2023-06-10T19:40:15.795Z,20.81
2023-06-10T19:42:42.583Z,20.72
2023-06-10T19:45:10.070Z,20.57
2023-06-10T19:47:37.589Z,20.40
2023-06-10T19:50:04.601Z,20.26
2023-06-10T19:52:33.113Z,20.22
2023-06-10T19:54:59.776Z,20.01
2023-06-10T19:57:27.062Z,19.96
2023-06-10T19:59:53.786Z,19.83
2023-06-10T20:02:21.506Z,19.64
2023-06-10T20:04:48.266Z,19.49
2023-06-10T20:07:15.060Z,19.43
2023-06-10T20:09:41.724Z,19.42
2023-06-10T20:12:09.136Z,19.32
2023-06-10T20:14:35.780Z,19.20
2023-06-10T20:17:02.479Z,19.17
2023-06-10T20:19:29.183Z,19.09
2023-06-10T20:21:56.917Z,19.07
2023-06-10T20:24:23.749Z,19.14
2023-06-10T20:26:50.770Z,19.08
2023-06-10T20:29:18.681Z,19.06
2023-06-10T20:31:46.748Z,19.02
2023-06-10T20:34:13.622Z,19.02
2023-06-10T20:36:40.517Z,19.05
2023-06-10T20:39:07.381Z,19.02
2023-06-10T20:41:35.605Z,18.98
2023-06-10T20:44:02.304Z,18.98
2023-06-10T20:46:29.054Z,19.08
2023-06-10T20:48:55.905Z,19.02
2023-06-10T20:51:22.938Z,19.02
2023-06-10T20:53:49.642Z,18.88
2023-06-10T20:56:16.441Z,18.90
2023-06-10T20:58:43.113Z,18.89
2023-06-10T21:01:09.920Z,18.78
2023-06-10T21:03:36.803Z,18.72
2023-06-10T21:06:03.720Z,18.65
2023-06-10T21:08:30.485Z,18.65
2023-06-10T21:10:57.357Z,18.52
2023-06-10T21:13:24.008Z,18.47
2023-06-10T21:15:50.817Z,18.36
2023-06-10T21:18:17.475Z,18.33
2023-06-10T21:20:44.251Z,18.25
2023-06-10T21:23:11.670Z,18.21
2023-06-10T21:25:38.611Z,18.15
2023-06-10T21:28:05.421Z,18.13
2023-06-10T21:30:32.134Z,18.07
2023-06-10T21:32:58.894Z,18.04
2023-06-10T21:35:25.719Z,18.03
2023-06-10T21:37:52.359Z,17.99
2023-06-10T21:40:19.872Z,17.95
2023-06-10T21:42:46.495Z,17.86
2023-06-10T21:45:13.481Z,17.60
2023-06-10T21:47:40.612Z,17.67
2023-06-10T21:50:07.914Z,17.63
2023-06-10T21:52:34.712Z,17.64
2023-06-10T21:55:01.689Z,17.55
2023-06-10T21:57:28.443Z,17.53
2023-06-10T21:59:55.283Z,17.40
2023-06-10T22:02:22.082Z,17.35
2023-06-10T22:04:49.019Z,17.28
2023-06-10T22:07:15.765Z,17.23
2023-06-10T22:09:49.443Z,17.25
2023-06-10T22:12:17.209Z,17.13
2023-06-10T22:14:44.343Z,17.16
2023-06-10T22:17:12.010Z,17.05
2023-06-10T22:19:39.956Z,17.10
2023-06-10T22:22:07.642Z,17.00
2023-06-10T22:24:34.968Z,17.05
2023-06-10T22:27:02.055Z,17.03
2023-06-10T22:29:28.810Z,16.98
2023-06-10T22:31:56.259Z,16.88
2023-06-10T22:34:23.519Z,16.87
2023-06-10T22:36:50.412Z,16.81
2023-06-10T22:39:17.184Z,16.76
2023-06-10T22:41:44.007Z,16.76
2023-06-10T22:44:10.944Z,16.74
2023-06-10T22:46:37.713Z,16.62
2023-06-10T22:49:04.930Z,16.61
2023-06-10T22:51:31.667Z,16.55
2023-06-10T22:53:58.881Z,16.52
2023-06-10T22:56:27.191Z,16.48
2023-06-10T22:58:54.095Z,16.42
2023-06-10T23:01:21.048Z,16.46
2023-06-10T23:03:48.041Z,16.44
2023-06-10T23:06:15.979Z,16.47
2023-06-10T23:08:42.759Z,16.39
2023-06-10T23:11:09.462Z,16.35
2023-06-10T23:13:36.254Z,16.21
2023-06-10T23:16:03.015Z,16.23
2023-06-10T23:18:29.794Z,16.17
2023-06-10T23:20:57.286Z,16.13
2023-06-10T23:23:33.514Z,16.07
2023-06-10T23:26:03.525Z,16.02
2023-06-10T23:28:30.325Z,15.93
2023-06-10T23:30:57.261Z,15.94
2023-06-10T23:33:24.834Z,15.82
2023-06-10T23:35:51.726Z,15.92
2023-06-10T23:38:18.501Z,15.89
2023-06-10T23:40:45.515Z,15.79
2023-06-10T23:43:15.549Z,15.88
2023-06-10T23:45:42.400Z,15.77
2023-06-10T23:48:09.336Z,15.62
2023-06-10T23:50:38.041Z,15.61
2023-06-10T23:53:06.674Z,15.66
2023-06-10T23:55:35.449Z,15.57
2023-06-10T23:58:03.504Z,15.56
